Details From EGCC - Manchester
To RJAA - Narita Intl
Flight Number -
Tags Decoded
Created
Modified
Stats Distance 5,180 nm / 9,593 km
Max Altitude 0 ft / 0 m
Waypoints 10
Social Downloads 3
Likes 0
Share VATSIM

Download

Looking for another format? Having issues loading an existing format? Contact us
Advertisement - Login to hide

Notes

Decoded

Route

EGCC SO110 KIK OLUTI OMOSA KULOR LOKVO ARIES COSMO RJAA

ID Type Via Altitude Latitude Longitude Leg Dist Tot Dist Heading (true) Name
O EGCC APT - 0 ft / 0 m 53.33197˚ -2.31066˚ - 0 nm - -
SO110 FIX - 0 ft / 0 m 59.87167˚ 5.23667˚ 464 nm 464 nm 29° / 36° -
KIK VOR - 0 ft / 0 m 69.72379˚ 29.86911˚ 853 nm 1317 nm 36° / 58° KIRKENES VOR-DME
OLUTI FIX - 0 ft / 0 m 61.80000˚ 118.31667˚ 2029 nm 3346 nm 58° / 141° -
OMOSA FIX - 0 ft / 0 m 55.60000˚ 126.63667˚ 453 nm 3799 nm 141° / 149° -
KULOR FIX - 0 ft / 0 m 49.10000˚ 132.06667˚ 437 nm 4237 nm 151° / 155° -
LOKVO FIX - 0 ft / 0 m 46.38333˚ 134.10000˚ 182 nm 4420 nm 153° / 154° -
ARIES FIX - 0 ft / 0 m 35.80916˚ 141.15479˚ 710 nm 5130 nm 151° / 156° -
COSMO FIX - 0 ft / 0 m 35.57937˚ 140.51956˚ 33 nm 5164 nm 246° / 246° -
O RJAA APT - 0 ft / 0 m 35.80271˚ 140.37991˚ 15 nm 5179 nm 333° / 333° -

Altitude Profile

Advertisement - Login to hide

Weather


0- 5 10 15 20 25 30 35+ Temperature / ° C

Clouds and Precipitation
Forecast for 2017-12-13 18:00 UTC. Updated 18 minutes ago

Ground ~20,000 ft ~40,000 ft Winds

EGCC

Details ICAO EGCC (MAN)
Name Manchester Intl
Region United Kingdom
Timezone Europe/London (UTC+0.0)
Stats Elevation 257 ft / 78 m (AMSL)
Location 53.347141° -2.283954°
Runways 2
Magnetic Variation 1.462° W

METAR

EGCC 131520Z 26009KT 9999 VCSH SCT027TCU 05/02 Q0988 TEMPO SHRA BKN012

Decode

TAF

TAF EGCC 131103Z 1312/1418 20008KT 9999 SCT025 BECMG 1312/1315 26015KT TEMPO 1312/1415 6000 SHRA BKN012 TEMPO 1312/1409 27020G30KT PROB30 TEMPO 1312/1314 4000 +SHRA BKN006 PROB30 TEMPO 1317/1412 1400 +SHRASN BKN002 BKN020CB

Decode

Departure Runways

ID Width Length Bearing (true) Bearing (mag) Surface Threshold Offset Overrun Length
05L 151 ft / 46 m 9,981 ft / 3,042 m 50.99° 52.45° Asphalt 1,401 ft / 427 m 0 ft / 0 m
05R 151 ft / 46 m 9,952 ft / 3,033 m 50.97° 52.43° Asphalt 0 ft / 0 m 26 ft / 8 m
23L 151 ft / 46 m 9,952 ft / 3,033 m 231.00° 232.46° Asphalt 561 ft / 171 m 0 ft / 0 m
23R 151 ft / 46 m 9,981 ft / 3,042 m 231.02° 232.48° Asphalt 597 ft / 182 m 0 ft / 0 m

RJAA

Details ICAO RJAA (NRT)
Name NARITA INTL
Region Japan
Timezone Asia/Tokyo (UTC+9.0)
Stats Elevation 141 ft / 43 m (AMSL)
Location 35.776552° 140.382770°
Runways 2
Magnetic Variation 7.405° W

METAR

RJAA 131530Z 33010KT 9999 FEW030 00/M06 Q1016 NOSIG RMK 1CU030 A3002

Decode

TAF

TAF RJAA 131105Z 1312/1418 32007KT 9999 FEW030= TAF RJBB 131105Z 1312/1418 31018KT 9999 FEW020 BKN045 BECMG 1312/1314 35015KT

Decode

Destination Runways

ID Width Length Bearing (true) Bearing (mag) Surface Threshold Offset Overrun Length
16L 196 ft / 60 m 7,162 ft / 2,183 m 149.61° 157.02° Asphalt 190 ft / 58 m 0 ft / 0 m
16R 196 ft / 60 m 13,142 ft / 4,006 m 149.61° 157.02° Asphalt 0 ft / 0 m 410 ft / 125 m
34L 196 ft / 60 m 13,142 ft / 4,006 m 329.62° 337.03° Asphalt 0 ft / 0 m 415 ft / 126 m
34R 196 ft / 60 m 7,162 ft / 2,183 m 329.62° 337.03° Asphalt 190 ft / 58 m 0 ft / 0 m

Approach Navaids

Runway Type Ident Frequency Range Bearing (true) Bearing (mag) Slope Elevation
16L Localiser ITM 110.70 MHz 18 nm / 33 km 149.62° 157.02° - 141 ft / 43 m (AMSL)
16L Glidescope ITM 110.70 MHz 10 nm / 19 km 149.62° 157.02° 3.00° 141 ft / 43 m (AMSL)
16L DME ITM 110.70 MHz 18 nm / 33 km - - - 145 ft / 44 m (AMSL)
16R Localiser IKF 111.50 MHz 18 nm / 33 km 149.63° 157.03° - 141 ft / 43 m (AMSL)
16R Glidescope IKF 111.50 MHz 10 nm / 19 km 149.62° 157.02° 3.00° 141 ft / 43 m (AMSL)
16R DME IKF 111.50 MHz 18 nm / 33 km - - - 145 ft / 44 m (AMSL)
34L Localiser IYQ 111.90 MHz 18 nm / 33 km 329.61° 337.01° - 141 ft / 43 m (AMSL)
34L Glidescope IYQ 111.90 MHz 10 nm / 19 km 329.62° 337.02° 3.00° 141 ft / 43 m (AMSL)
34L DME IYQ 111.90 MHz 18 nm / 33 km - - - 153 ft / 47 m (AMSL)
34R Localiser ITJ 110.90 MHz 18 nm / 33 km 329.62° 337.02° - 141 ft / 43 m (AMSL)
34R Glidescope ITJ 110.90 MHz 10 nm / 19 km 329.62° 337.02° 3.00° 141 ft / 43 m (AMSL)
34R DME ITJ 110.90 MHz 18 nm / 33 km - - - 148 ft / 45 m (AMSL)

Popular Alternatives